MDT,Max TemperatureF,Mean TemperatureF,Min TemperatureF,Max Dew PointF,MeanDew PointF,Min DewpointF,Max Humidity, Mean Humidity, Min Humidity, Max Sea Level PressureIn, Mean Sea Level PressureIn, Min Sea Level PressureIn, Max VisibilityMiles, Mean VisibilityMiles, Min VisibilityMiles, Max Wind SpeedMPH, Mean Wind SpeedMPH, Max Gust SpeedMPH,PrecipitationIn, CloudCover, Events, WindDirDegrees
2013-8-1,74,64,53,56,51,38,84,58,31,30.07,30.00,29.92,10,8,0,44,10,55,0.88,6,Fog-Rain-Thunderstorm,289
2013-8-2,83,70,56,55,49,43,86,56,26,30.06,29.99,29.92,10,9,2,23,6,31,0.10,4,Rain-Thunderstorm,271
2013-8-3,79,67,54,51,47,44,72,48,23,30.12,30.07,30.00,10,10,7,18,5,21,0.03,1,Rain,313
2013-8-4,85,71,56,49,43,35,72,43,14,30.09,30.02,29.94,10,10,10,20,5,24,0.00,1,,301
2013-8-5,88,71,53,49,42,35,71,44,16,30.03,29.96,29.85,10,10,10,28,8,35,0.00,0,,303
2013-8-6,87,71,54,49,44,34,72,44,15,30.04,29.99,29.95,10,10,10,15,4,18,0.00,2,,299
2013-8-7,90,72,54,48,41,30,71,42,13,30.01,29.96,29.88,10,10,10,15,4,18,0.00,0,,9
2013-8-8,86,72,58,51,48,45,62,44,25,30.07,30.01,29.95,10,10,10,20,7,24,0.00,0,,297
2013-8-9,83,71,59,59,52,46,72,53,34,30.13,30.07,29.99,10,10,9,22,6,30,0.02,3,Rain-Thunderstorm,289
2013-8-10,85,70,54,53,48,38,80,52,23,30.10,30.03,29.97,10,10,10,24,3,37,0.00,0,,261
2013-8-11,84,71,57,50,45,37,67,45,23,30.07,30.04,29.98,10,10,10,21,4,25,0.00,0,,256
2013-8-12,86,69,51,48,42,30,71,45,18,30.09,30.05,30.00,10,10,10,17,5,24,0.00,1,Thunderstorm,288
2013-8-13,88,71,54,54,45,39,78,48,18,30.18,30.09,29.99,10,9,2,29,4,37,0.42,2,Rain-Thunderstorm,276
2013-8-14,89,71,53,54,47,35,89,53,17,30.14,30.05,29.95,10,10,10,12,3,20,0.00,0,,38
2013-8-15,94,75,55,50,39,33,62,37,12,30.06,29.97,29.88,10,10,10,13,3,17,0.00,0,,147
2013-8-16,97,77,56,45,38,25,55,32,8,29.98,29.92,29.83,10,10,10,22,5,29,0.00,0,,283
2013-8-17,92,76,60,46,42,37,48,34,19,30.04,29.95,29.87,10,10,10,15,4,21,0.00,0,,160
2013-8-18,92,77,62,47,42,37,48,32,15,30.04,29.95,29.88,10,10,10,23,9,28,0.00,1,,284
2013-8-19,94,76,57,42,36,27,57,33,9,30.02,29.93,29.83,10,10,9,22,7,30,0.00,0,,278
2013-8-20,91,74,56,41,38,34,47,31,14,30.00,29.92,29.84,10,10,7,21,8,26,0.00,0,,273
2013-8-21,89,72,55,39,34,31,51,32,13,30.10,30.03,29.98,10,10,10,12,5,15,0.00,0,,332
2013-8-22,85,70,55,54,43,34,47,37,26,30.09,29.99,29.89,10,9,2,26,4,33,0.14,2,Rain-Thunderstorm,231
2013-8-23,84,72,59,57,49,38,65,43,20,29.99,29.85,29.74,10,10,9,30,8,40,0.01,2,Rain-Thunderstorm,197
2013-8-24,86,71,55,50,46,41,72,47,22,29.96,29.88,29.81,10,10,9,28,6,37,0.00,1,Thunderstorm,114
2013-8-25,92,73,54,50,47,38,77,47,16,30.00,29.93,29.82,10,10,10,23,6,29,0.00,0,Thunderstorm,286
2013-8-26,85,71,57,53,46,42,62,43,23,30.03,29.94,29.86,10,10,10,24,7,33,0.05,2,Rain,185
2013-8-27,89,72,55,53,45,36,77,47,16,30.04,29.95,29.86,10,10,10,23,4,29,0.00,1,,242
2013-8-28,85,71,56,55,49,42,72,50,28,30.06,29.97,29.90,10,10,8,26,4,35,0.04,1,Rain-Thunderstorm,235
2013-8-29,91,73,54,58,49,39,86,53,19,30.13,30.03,29.89,10,10,10,17,4,25,0.02,1,,225
2013-8-30,90,72,54,51,44,37,67,42,16,30.07,30.01,29.92,10,10,10,24,6,29,0.00,0,,295
2013-8-31,85,69,53,43,38,31,59,37,14,30.14,30.06,29.99,10,10,10,13,6,15,0.00,0,,9